• Join FlightAware (Why Join?)
  • Login
  • US Flag 
12:16PM EDT


 

Airport Tracker/Info


-or-


 

Live Flight TrackerFlight Track Log ✈ N830QS ✈ 19-Oct-2013 ✈ KTYR - KSAT

Flight Track Log - Related Links

Times and Time Zones

All times are in EDT time to prevent confusion due to time zone crossing. See the N830QS flight status page for this flight to view local times or setup timezone preferences in your user account.

Time Position Orientation Groundspeed Altitude Reporting Facility
EDT Latitude Longitude Course Direction KTS MPH feet Rate Location/Type
01:51PM 32.4156 -95.4817 251° West 183 211 5,100  Level Fort Worth Center
01:52PM 32.4231 -95.5553 277° West 209 241 6,300 2,160 Climbing Fort Worth Center
01:53PM 32.3950 -95.6369 248° West 229 264 9,500 3,420 Climbing Fort Worth Center
01:54PM 32.3586 -95.7239 244° Southwest 261 300 13,200 3,660 Climbing Fort Worth Center
01:55PM 32.3200 -95.8106 242° Southwest 284 327 16,900 3,300 Climbing Fort Worth Center
01:56PM 32.0260 -95.7729 251° West  Level Estimated
01:56PM 32.2647 -95.8878 230° Southwest 298 343 19,900  Level Fort Worth Center
01:57PM 32.2031 -95.9672 227° Southwest 317 365 21,400 1,020 Climbing Fort Worth Center
01:58PM 32.1331 -96.0542 226° Southwest 344 396 22,000 300 Climbing Fort Worth Center
01:59PM 32.0669 -96.1386 227° Southwest 351 404 22,000  Level Fort Worth Center
02:00PM 32.0031 -96.2203 227° Southwest 351 404 22,000  Level Fort Worth Center
02:01PM 31.9411 -96.2969 226° Southwest 344 396 22,000  Level Fort Worth Center
02:02PM 31.8792 -96.3711 225° Southwest 331 381 22,000  Level Fort Worth Center
02:03PM 31.8192 -96.4500 228° Southwest 326 375 22,000  Level Fort Worth Center
02:04PM 31.7572 -96.5264 226° Southwest 326 375 22,000  Level Fort Worth Center
02:05PM 31.7014 -96.5978 227° Southwest 320 368 22,000  Level Fort Worth Center
02:06PM 31.6369 -96.6764 226° Southwest 320 368 22,000  Level Fort Worth Center
02:07PM 31.5769 -96.7525 227° Southwest 320 368 22,000  Level Fort Worth Center
02:08PM 31.5069 -96.8394 227° Southwest 318 366 22,000  Level Houston Center
02:09PM 31.4447 -96.9169 227° Southwest 323 372 22,000  Level Houston Center
02:10PM 31.3828 -96.9939 227° Southwest 323 372 22,000  Level Houston Center
02:12PM 31.3203 -97.0708 226° Southwest 323 372 22,000  Level Houston Center
02:13PM 31.2586 -97.1464 226° Southwest 320 368 22,000  Level Houston Center
02:14PM 31.1928 -97.2139 221° Southwest 320 368 22,000  Level Houston Center
02:15PM 31.0903 -97.2553 199° South 330 380 22,000  Level Houston Center
02:16PM 31.0050 -97.2889 199° South 333 383 22,000  Level Houston Center
02:17PM 30.9178 -97.3222 198° South 332 382 22,000  Level Houston Center
02:18PM 30.8292 -97.3567 198° South 337 388 22,000  Level Houston Center
02:19PM 30.7431 -97.3900 198° South 326 375 22,000  Level Houston Center
02:20PM 30.6425 -97.4289 198° South 324 373 22,000  Level Houston Center
02:21PM 30.5550 -97.4631 199° South 326 375 22,000  Level Houston Center
02:22PM 30.4678 -97.4969 199° South 328 377 22,000  Level Houston Center
02:23PM 30.3803 -97.5314 199° South 329 379 22,000 -60 Level Houston Center
02:24PM 30.3017 -97.5825 209° Southwest 320 368 21,900 -900 Descending Houston Center
02:25PM 30.2247 -97.6369 211° Southwest 318 366 20,200 -1,620 Descending Houston Center
02:26PM 30.1492 -97.6883 210° Southwest 314 361 18,600 -1,560 Descending Houston Center
02:27PM 30.0858 -97.7317 211° Southwest 313 360 17,400 -1,800 Descending Houston Center
02:27PM 30.0619 -97.7489 212° Southwest 314 361 16,800 -1,860 Descending Houston Center
02:27PM 30.0406 -97.7639 211° Southwest 314 361 16,300 -1,860 Descending Houston Center
02:28PM 29.9861 -97.8003 210° Southwest 317 365 14,900 -1,800 Descending Houston Center
02:29PM 29.9122 -97.8506 211° Southwest 308 354 13,300 -1,680 Descending Houston Center
02:29PM 29.8939 -97.8767 231° Southwest 291 335 12,700 -1,680 Descending Houston Center
02:30PM 29.8686 -97.9306 242° Southwest 272 313 11,600 -1,620 Descending Houston Center
02:30PM 29.8592 -97.9533 244° Southwest 263 303 11,100 -1,560 Descending Houston Center
02:31PM 29.8358 -98.0078 244° Southwest 269 310 10,000 -1,740 Descending Houston Center
02:31PM 29.8269 -98.0322 247° West 266 306 9,400 -1,980 Descending Houston Center
02:32PM 29.7875 -98.0808 227° Southwest 270 311 8,000 -1,860 Descending Houston Center
02:33PM 29.7603 -98.1056 218° Southwest 277 319 7,200 -1,560 Descending Houston Center
02:33PM 29.7289 -98.1369 221° Southwest 273 314 6,400 -1,500 Descending Houston Center
02:33PM 29.7161 -98.1494 220° Southwest 277 319 6,000 -420 Descending Houston Center
02:34PM 29.6678 -98.1961 220° Southwest 285 328 6,000  Level Houston Center
02:34PM 29.6525 -98.2103 219° Southwest 290 334 6,000 -600 Level Houston Center
02:35PM 29.6072 -98.2550 221° Southwest 254 292 5,400 -780 Descending Houston Center
02:35PM 29.6044 -98.2569 211° Southwest 245 282 5,300 -1,680 Descending Houston Center
02:36PM 29.5572 -98.3039 221° Southwest 235 270 3,700 -1,680 Descending Houston Center
02:36PM 29.5522 -98.3067 206° Southwest 229 264 3,600 -540 Descending Houston Center
02:37PM 29.5147 -98.3458 222° Southwest 197 227 3,200 -420 Descending Houston Center
02:37PM 29.5119 -98.3475 208° Southwest 174 200 3,200 -780 Level Houston Center
02:38PM 29.4786 -98.3803 221° Southwest 159 183 2,400 -840 Descending Houston Center
02:38PM 29.4772 -98.3806 190° South 142 163 2,400 -540 Level Houston Center
02:39PM 29.4892 -98.4178 290° West 135 155 1,900 -600 Descending Houston Center
02:39PM 29.4892 -98.4200 270° West 125 144 1,800 -720 Descending Houston Center
02:40PM 29.5131 -98.4469 316° Northwest 126 145 1,200 -720 Descending Houston Center
02:40PM 29.5128 -98.4483 257° West 125 144 1,100 -540 Descending Houston Center
02:41PM 29.5372 -98.4767 315° West 125 144 700 -420 Descending Houston Center